Arlington, MA

11:21 AM EDT on September 01, 2015 (GMT -0400)
Arlington Center | | Change Station
CLOSE
Current Station
Personal Weather Station
Location: Arlington, MA
Elevation: 43 ft
Nearby Weather Stations

Elev 43 ft 42.41 °N, 71.15 °W | Updated 17 seconds ago

Clear
Clear
86.2 °F
Feels Like 86 °F
N
4.0
Wind Variable Wind from West
Gusts 4.0 mph

Today
High -- | Low -- °F
--% Chance of Precip.
Yesterday
High -- | Low -- °F
Precip. -- in
6:09 AM 7:19 PM
Waning Gibbous, 88% visible
Pressure 30.08 in
Visibility 10.0 miles
Clouds Clear
Heat Index 86 °F
Dew Point 61 °F
Humidity 43%
Rainfall 0.00 in
Snow Depth Not available.
UV 7 out of 12
Pollen 9.10 out of 12
Air Quality Not available.
Flu Activity Not available.
METAR KBED 011456Z VRB04KT 10SM CLR 26/15 A3005 RMK AO2 SLP185 T02610150 51006
Pressure 30.08 in
Visibility 10.0 miles
Clouds Clear
Heat Index 86 °F
Dew Point 61 °F
Humidity 43%
Rainfall 0.00 in
Snow Depth Not available.
UV 7 out of 12
Pollen 9.10 out of 12
Air Quality Not available.
Flu Activity Not available.
METAR KBED 011456Z VRB04KT 10SM CLR 26/15 A3005 RMK AO2 SLP185 T02610150 51006

10-Day Weather Forecast

×

Almanac

Astronomy

Sep. 01, 2015 Rise Set
Actual Time
Civil Twilight
Nautical Twilight
Astronomical Twilight
Moon
Length of Visible Light
Length of Day
Tomorrow will be .
, % of the Moon is Illuminated

Today's Extremes

State Highs State Lows

Community

WunderPhotos

Upload Photos

1,851,523 photos uploaded!

WunderBlogs® & News

Nearby

Air Quality

  Air Quality AQ Index Pollutant
Not available.

Snow Depth

Station Depth Elevation

Earthquake Activity

City Distance Mag. Time & Date
Minimum magnitude displayed is 2.5.

Coastal Water Temperatures

Place Temperature

Stations

Nearby Weather Stations

Station Location Temp. Windchill Dew Point Humidity Wind Precip. Elev Updated Type